Terminal Aerodrome Forecast
Issued by NWS

Home | Current Version | Previous Version | Text Only | Print | Product List | Glossary Off
Versions: 1 2 3 4 5 6 7 8 9 10 11 12 13 14 15 16 17 18 19 20 21

273
FTUS43 KABR 241727
TAFATY
TAF
KATY 241727Z 2418/2518 23005KT P6SM FEW025
     FM250400 14006KT P6SM SCT250
     FM250800 13007KT P6SM SHRA BKN080
     FM251600 16011KT P6SM SHRA BKN060=

USA.gov is the U.S. government's official web portal to all federal, state and local government web resources and services.